createdAt,value
2022-10-19T00:07:53.648Z,99270
2022-10-19T00:19:53.167Z,99270
2022-10-19T00:31:53.169Z,99250
2022-10-19T00:43:53.165Z,99260
2022-10-19T00:55:53.166Z,99250
2022-10-19T01:07:53.157Z,99250
2022-10-19T01:19:53.172Z,99250
2022-10-19T01:31:53.167Z,99240
2022-10-19T01:43:53.161Z,99240
2022-10-19T01:55:53.216Z,99220
2022-10-19T02:07:53.166Z,99220
2022-10-19T02:19:53.167Z,99200
2022-10-19T02:31:53.171Z,99190
2022-10-19T02:43:53.172Z,99180
2022-10-19T02:55:53.250Z,99180
2022-10-19T03:07:53.167Z,99190
2022-10-19T03:19:53.163Z,99170
2022-10-19T03:31:53.168Z,99160
2022-10-19T03:43:53.238Z,99150
2022-10-19T03:55:53.449Z,99150
2022-10-19T04:07:53.168Z,99170
2022-10-19T04:19:53.171Z,99170
2022-10-19T04:31:53.169Z,99170
2022-10-19T04:43:53.166Z,99180
2022-10-19T04:55:53.472Z,99170
2022-10-19T05:07:53.165Z,99160
2022-10-19T05:19:53.167Z,99160
2022-10-19T05:31:53.173Z,99150
2022-10-19T05:43:53.177Z,99150
2022-10-19T05:55:53.169Z,99140
2022-10-19T06:07:53.160Z,99130
2022-10-19T06:19:53.164Z,99120
2022-10-19T06:31:53.172Z,99120
2022-10-19T06:43:53.178Z,99140
2022-10-19T06:55:53.175Z,99130
2022-10-19T07:07:53.206Z,99130
2022-10-19T07:19:53.163Z,99150
2022-10-19T07:31:53.174Z,99150
2022-10-19T07:43:53.307Z,99160
2022-10-19T07:55:53.533Z,99170
2022-10-19T08:07:53.172Z,99160
2022-10-19T08:19:53.164Z,99170
2022-10-19T08:31:53.178Z,99180
2022-10-19T08:43:53.174Z,99180
2022-10-19T08:55:53.166Z,99160
2022-10-19T09:07:53.162Z,99160
2022-10-19T09:19:53.165Z,99150
2022-10-19T09:31:53.229Z,99140
2022-10-19T09:43:53.171Z,99150
2022-10-19T09:55:53.176Z,99140
2022-10-19T10:07:53.171Z,99140
2022-10-19T10:19:53.167Z,99140
2022-10-19T10:31:53.171Z,99150
2022-10-19T10:43:53.173Z,99200
2022-10-19T10:55:53.178Z,99130
2022-10-19T11:07:53.156Z,99090
2022-10-19T11:19:53.170Z,99080
2022-10-19T11:31:53.170Z,99070
2022-10-19T11:43:53.173Z,99050
2022-10-19T11:55:53.168Z,99020
2022-10-19T12:07:53.162Z,99030
2022-10-19T12:19:53.165Z,98990
2022-10-19T12:31:53.177Z,99000
2022-10-19T12:43:53.167Z,98990
2022-10-19T12:55:53.175Z,98960
2022-10-19T13:07:53.167Z,98970
2022-10-19T13:19:53.165Z,98950
2022-10-19T13:31:53.178Z,98950
2022-10-19T13:43:53.166Z,98930
2022-10-19T13:55:53.409Z,98930
2022-10-19T14:07:53.405Z,98920
2022-10-19T14:19:53.412Z,98920
2022-10-19T14:31:53.470Z,98910
2022-10-19T14:43:53.421Z,98900
2022-10-19T14:55:53.433Z,98860
2022-10-19T15:07:53.444Z,98850
2022-10-19T15:19:53.474Z,98840
2022-10-19T15:31:53.449Z,98830
2022-10-19T15:43:53.442Z,98830
2022-10-19T15:55:53.532Z,98840
2022-10-19T16:07:53.448Z,98830
2022-10-19T16:19:53.166Z,98820
2022-10-19T16:31:53.170Z,98800
2022-10-19T16:43:53.162Z,98780
2022-10-19T16:55:53.165Z,98780
2022-10-19T17:07:53.167Z,98770
2022-10-19T17:19:53.162Z,98780
2022-10-19T17:31:53.462Z,98770
2022-10-19T17:43:53.167Z,98770
2022-10-19T17:55:53.162Z,98760
2022-10-19T18:07:53.164Z,98760
2022-10-19T18:19:53.161Z,98800
2022-10-19T18:31:53.348Z,98810
2022-10-19T18:43:53.161Z,98780
2022-10-19T18:55:53.166Z,98790
2022-10-19T19:07:53.164Z,98780
2022-10-19T19:19:53.161Z,98770
2022-10-19T19:31:53.556Z,98770
2022-10-19T19:43:53.163Z,98750
2022-10-19T19:55:53.163Z,98730
2022-10-19T20:07:53.164Z,98730
2022-10-19T20:19:53.152Z,98750
2022-10-19T20:31:53.165Z,98750
2022-10-19T20:43:53.161Z,98750
2022-10-19T20:55:53.162Z,98750
2022-10-19T21:07:53.172Z,98750
2022-10-19T21:19:57.154Z,98750
2022-10-19T21:31:53.167Z,98750
2022-10-19T21:43:53.161Z,98750
2022-10-19T21:55:53.169Z,98750
2022-10-19T22:07:53.163Z,98750
2022-10-19T22:19:53.175Z,98750
2022-10-19T22:31:53.195Z,98750
2022-10-19T22:43:53.155Z,98750
2022-10-19T22:55:53.228Z,98750
2022-10-19T23:07:53.448Z,98750
2022-10-19T23:19:53.168Z,98750
2022-10-19T23:31:53.285Z,98750
2022-10-19T23:43:53.170Z,98750
2022-10-19T23:55:53.409Z,98750
